KRDG/RDG METAR and TAF weather

Enter ICAO airport designator
Station Type Date Time Source
KRDG METAR 2021/06/24 06:54 UTC NOAA

KRDG 240654Z AUTO 00000KT 10SM CLR 13/11 A3030 RMK AO2 SLP264 T01330111 $


Station Type Date Time Source
KRDG Decoded METAR 2021/06/24 06:54 UTC NOAA

READING REGIONAL AIRPORT, PA, United States (KRDG) 40-22N 075-58W 109M
Jun 24, 2021 - 02:54 AM EDT / 2021.06.24 0654 UTC
Wind: Calm:0
Visibility: 10 mile(s):0
Sky conditions: clear
Temperature: 55.9 F (13.3 C)
Dew Point: 52.0 F (11.1 C)
Relative Humidity: 86%
Pressure (altimeter): 30.3 in. Hg (1026 hPa)
ob: KRDG 240654Z AUTO 00000KT 10SM CLR 13/11 A3030 RMK AO2 SLP264 T01330111
cycle: 7

Station Type Date Time Source
KRDG TAF 2021/06/24 06:30 UTC NOAA

TAF KRDG 240529Z 2406/2506 00000KT P6SM SKC
FM241400 12004KT P6SM SKC
FM241800 13006KT P6SM FEW200

Example: see airport list